sensor_id;sensor_type;location;lat;lon;timestamp;pressure;altitude;pressure_sealevel;temperature
25514;BMP180;48128;54.242;10.280;2024-03-07T00:00:30;102526.00;;;3.60
25514;BMP180;48128;54.242;10.280;2024-03-07T00:02:58;102522.00;;;3.60
25514;BMP180;48128;54.242;10.280;2024-03-07T00:05:25;102526.00;;;3.60
25514;BMP180;48128;54.242;10.280;2024-03-07T00:07:53;102524.00;;;3.50
25514;BMP180;48128;54.242;10.280;2024-03-07T00:10:20;102519.00;;;3.50
25514;BMP180;48128;54.242;10.280;2024-03-07T00:12:50;102527.00;;;3.50
25514;BMP180;48128;54.242;10.280;2024-03-07T00:15:17;102528.00;;;3.50
25514;BMP180;48128;54.242;10.280;2024-03-07T00:17:44;102518.00;;;3.50
25514;BMP180;48128;54.242;10.280;2024-03-07T00:20:12;102530.00;;;3.50
25514;BMP180;48128;54.242;10.280;2024-03-07T00:22:43;102534.00;;;3.50
25514;BMP180;48128;54.242;10.280;2024-03-07T00:25:10;102519.00;;;3.50
25514;BMP180;48128;54.242;10.280;2024-03-07T00:27:39;102520.00;;;3.50
25514;BMP180;48128;54.242;10.280;2024-03-07T00:30:06;102532.00;;;3.50
25514;BMP180;48128;54.242;10.280;2024-03-07T00:32:36;102532.00;;;3.50
25514;BMP180;48128;54.242;10.280;2024-03-07T00:35:04;102522.00;;;3.50
25514;BMP180;48128;54.242;10.280;2024-03-07T00:37:31;102525.00;;;3.50
25514;BMP180;48128;54.242;10.280;2024-03-07T00:39:58;102529.00;;;3.40
25514;BMP180;48128;54.242;10.280;2024-03-07T00:42:25;102523.00;;;3.40
25514;BMP180;48128;54.242;10.280;2024-03-07T00:44:54;102525.00;;;3.40
25514;BMP180;48128;54.242;10.280;2024-03-07T00:47:21;102529.00;;;3.40
25514;BMP180;48128;54.242;10.280;2024-03-07T00:49:48;102523.00;;;3.40
25514;BMP180;48128;54.242;10.280;2024-03-07T00:52:15;102524.00;;;3.40
25514;BMP180;48128;54.242;10.280;2024-03-07T00:54:42;102528.00;;;3.40
25514;BMP180;48128;54.242;10.280;2024-03-07T00:57:09;102520.00;;;3.40
25514;BMP180;48128;54.242;10.280;2024-03-07T00:59:36;102529.00;;;3.30
25514;BMP180;48128;54.242;10.280;2024-03-07T01:02:04;102529.00;;;3.30
25514;BMP180;48128;54.242;10.280;2024-03-07T01:04:31;102524.00;;;3.30
25514;BMP180;48128;54.242;10.280;2024-03-07T01:07:00;102514.00;;;3.30
25514;BMP180;48128;54.242;10.280;2024-03-07T01:09:27;102523.00;;;3.30
25514;BMP180;48128;54.242;10.280;2024-03-07T01:11:57;102520.00;;;3.30
25514;BMP180;48128;54.242;10.280;2024-03-07T01:14:26;102512.00;;;3.30
25514;BMP180;48128;54.242;10.280;2024-03-07T01:16:54;102515.00;;;3.20
25514;BMP180;48128;54.242;10.280;2024-03-07T01:19:21;102521.00;;;3.20
25514;BMP180;48128;54.242;10.280;2024-03-07T01:21:48;102527.00;;;3.20
25514;BMP180;48128;54.242;10.280;2024-03-07T01:24:15;102517.00;;;3.20
25514;BMP180;48128;54.242;10.280;2024-03-07T01:26:47;102520.00;;;3.20
25514;BMP180;48128;54.242;10.280;2024-03-07T01:29:15;102516.00;;;3.20
25514;BMP180;48128;54.242;10.280;2024-03-07T01:31:42;102521.00;;;3.10
25514;BMP180;48128;54.242;10.280;2024-03-07T01:34:09;102519.00;;;3.10
25514;BMP180;48128;54.242;10.280;2024-03-07T01:36:36;102523.00;;;3.10
25514;BMP180;48128;54.242;10.280;2024-03-07T01:39:04;102519.00;;;3.10
25514;BMP180;48128;54.242;10.280;2024-03-07T01:41:31;102523.00;;;3.10
25514;BMP180;48128;54.242;10.280;2024-03-07T01:43:58;102522.00;;;3.10
25514;BMP180;48128;54.242;10.280;2024-03-07T01:46:25;102529.00;;;3.10
25514;BMP180;48128;54.242;10.280;2024-03-07T01:48:52;102534.00;;;3.10
25514;BMP180;48128;54.242;10.280;2024-03-07T01:51:19;102522.00;;;3.00
25514;BMP180;48128;54.242;10.280;2024-03-07T01:53:48;102529.00;;;3.00
25514;BMP180;48128;54.242;10.280;2024-03-07T01:56:16;102528.00;;;3.00
25514;BMP180;48128;54.242;10.280;2024-03-07T01:58:43;102530.00;;;2.90
25514;BMP180;48128;54.242;10.280;2024-03-07T02:01:11;102527.00;;;2.80
25514;BMP180;48128;54.242;10.280;2024-03-07T02:03:41;102534.00;;;2.70
25514;BMP180;48128;54.242;10.280;2024-03-07T02:06:09;102528.00;;;2.60
25514;BMP180;48128;54.242;10.280;2024-03-07T02:08:36;102537.00;;;2.60
25514;BMP180;48128;54.242;10.280;2024-03-07T02:11:04;102531.00;;;2.50
25514;BMP180;48128;54.242;10.280;2024-03-07T02:13:30;102537.00;;;2.50
25514;BMP180;48128;54.242;10.280;2024-03-07T02:15:58;102543.00;;;2.40
25514;BMP180;48128;54.242;10.280;2024-03-07T02:18:25;102547.00;;;2.40
25514;BMP180;48128;54.242;10.280;2024-03-07T02:20:53;102542.00;;;2.40
25514;BMP180;48128;54.242;10.280;2024-03-07T02:23:21;102543.00;;;2.40
25514;BMP180;48128;54.242;10.280;2024-03-07T02:25:48;102535.00;;;2.30
25514;BMP180;48128;54.242;10.280;2024-03-07T02:28:15;102536.00;;;2.30
25514;BMP180;48128;54.242;10.280;2024-03-07T02:30:42;102526.00;;;2.30
25514;BMP180;48128;54.242;10.280;2024-03-07T02:33:09;102534.00;;;2.30
25514;BMP180;48128;54.242;10.280;2024-03-07T02:35:37;102522.00;;;2.30
25514;BMP180;48128;54.242;10.280;2024-03-07T02:38:04;102526.00;;;2.20
25514;BMP180;48128;54.242;10.280;2024-03-07T02:40:32;102514.00;;;2.20
25514;BMP180;48128;54.242;10.280;2024-03-07T02:42:59;102520.00;;;2.20
25514;BMP180;48128;54.242;10.280;2024-03-07T02:45:26;102527.00;;;2.20
25514;BMP180;48128;54.242;10.280;2024-03-07T02:47:53;102527.00;;;2.20
25514;BMP180;48128;54.242;10.280;2024-03-07T02:50:22;102515.00;;;2.10
25514;BMP180;48128;54.242;10.280;2024-03-07T02:52:49;102520.00;;;2.10
25514;BMP180;48128;54.242;10.280;2024-03-07T02:55:16;102513.00;;;2.10
25514;BMP180;48128;54.242;10.280;2024-03-07T02:57:45;102511.00;;;2.10
25514;BMP180;48128;54.242;10.280;2024-03-07T03:00:13;102523.00;;;2.10
25514;BMP180;48128;54.242;10.280;2024-03-07T03:02:54;102519.00;;;2.10
25514;BMP180;48128;54.242;10.280;2024-03-07T03:05:21;102522.00;;;2.10
25514;BMP180;48128;54.242;10.280;2024-03-07T03:07:49;102514.00;;;2.10
25514;BMP180;48128;54.242;10.280;2024-03-07T03:10:24;102527.00;;;2.10
25514;BMP180;48128;54.242;10.280;2024-03-07T03:12:58;102523.00;;;2.10
25514;BMP180;48128;54.242;10.280;2024-03-07T03:15:27;102526.00;;;2.10
25514;BMP180;48128;54.242;10.280;2024-03-07T03:17:54;102525.00;;;2.10
25514;BMP180;48128;54.242;10.280;2024-03-07T03:20:21;102507.00;;;2.10
25514;BMP180;48128;54.242;10.280;2024-03-07T03:23:06;102504.00;;;2.10
25514;BMP180;48128;54.242;10.280;2024-03-07T03:25:47;102514.00;;;2.10
25514;BMP180;48128;54.242;10.280;2024-03-07T03:28:16;102518.00;;;2.10
25514;BMP180;48128;54.242;10.280;2024-03-07T03:30:47;102506.00;;;2.20
25514;BMP180;48128;54.242;10.280;2024-03-07T03:33:15;102508.00;;;2.20
25514;BMP180;48128;54.242;10.280;2024-03-07T03:35:42;102513.00;;;2.20
25514;BMP180;48128;54.242;10.280;2024-03-07T03:38:09;102514.00;;;2.20
25514;BMP180;48128;54.242;10.280;2024-03-07T03:40:37;102529.00;;;2.20
25514;BMP180;48128;54.242;10.280;2024-03-07T03:43:04;102524.00;;;2.20
25514;BMP180;48128;54.242;10.280;2024-03-07T03:45:31;102510.00;;;2.10
25514;BMP180;48128;54.242;10.280;2024-03-07T03:48:01;102517.00;;;2.10
25514;BMP180;48128;54.242;10.280;2024-03-07T03:50:29;102524.00;;;2.10
25514;BMP180;48128;54.242;10.280;2024-03-07T03:52:56;102527.00;;;2.10
25514;BMP180;48128;54.242;10.280;2024-03-07T03:55:24;102527.00;;;2.10
25514;BMP180;48128;54.242;10.280;2024-03-07T03:57:51;102527.00;;;2.10
25514;BMP180;48128;54.242;10.280;2024-03-07T04:00:18;102527.00;;;2.10
25514;BMP180;48128;54.242;10.280;2024-03-07T04:02:46;102529.00;;;2.10
25514;BMP180;48128;54.242;10.280;2024-03-07T04:05:18;102531.00;;;2.10
25514;BMP180;48128;54.242;10.280;2024-03-07T04:07:46;102531.00;;;2.10
25514;BMP180;48128;54.242;10.280;2024-03-07T04:10:15;102524.00;;;2.10
25514;BMP180;48128;54.242;10.280;2024-03-07T04:12:44;102526.00;;;2.10
25514;BMP180;48128;54.242;10.280;2024-03-07T04:15:14;102511.00;;;2.10
25514;BMP180;48128;54.242;10.280;2024-03-07T04:17:45;102504.00;;;2.10
25514;BMP180;48128;54.242;10.280;2024-03-07T04:20:15;102522.00;;;2.10
25514;BMP180;48128;54.242;10.280;2024-03-07T04:22:46;102514.00;;;2.10
25514;BMP180;48128;54.242;10.280;2024-03-07T04:25:13;102514.00;;;2.00
25514;BMP180;48128;54.242;10.280;2024-03-07T04:27:41;102503.00;;;2.00
25514;BMP180;48128;54.242;10.280;2024-03-07T04:30:08;102519.00;;;1.90
25514;BMP180;48128;54.242;10.280;2024-03-07T04:32:38;102521.00;;;1.90
25514;BMP180;48128;54.242;10.280;2024-03-07T04:35:06;102522.00;;;1.90
25514;BMP180;48128;54.242;10.280;2024-03-07T04:37:40;102511.00;;;1.90
25514;BMP180;48128;54.242;10.280;2024-03-07T04:40:08;102514.00;;;1.80
25514;BMP180;48128;54.242;10.280;2024-03-07T04:42:43;102506.00;;;1.80
25514;BMP180;48128;54.242;10.280;2024-03-07T04:45:11;102512.00;;;1.70
25514;BMP180;48128;54.242;10.280;2024-03-07T04:47:40;102514.00;;;1.70
25514;BMP180;48128;54.242;10.280;2024-03-07T04:50:09;102496.00;;;1.70
25514;BMP180;48128;54.242;10.280;2024-03-07T04:52:39;102485.00;;;1.60
25514;BMP180;48128;54.242;10.280;2024-03-07T04:55:07;102495.00;;;1.60
25514;BMP180;48128;54.242;10.280;2024-03-07T04:57:37;102489.00;;;1.60
25514;BMP180;48128;54.242;10.280;2024-03-07T05:00:10;102489.00;;;1.50
25514;BMP180;48128;54.242;10.280;2024-03-07T05:02:44;102492.00;;;1.50
25514;BMP180;48128;54.242;10.280;2024-03-07T05:05:12;102489.00;;;1.40
25514;BMP180;48128;54.242;10.280;2024-03-07T05:07:40;102494.00;;;1.40
25514;BMP180;48128;54.242;10.280;2024-03-07T05:10:08;102488.00;;;1.40
25514;BMP180;48128;54.242;10.280;2024-03-07T05:12:36;102493.00;;;1.40
25514;BMP180;48128;54.242;10.280;2024-03-07T05:15:05;102489.00;;;1.40
25514;BMP180;48128;54.242;10.280;2024-03-07T05:17:32;102501.00;;;1.50
25514;BMP180;48128;54.242;10.280;2024-03-07T05:20:02;102499.00;;;1.50
25514;BMP180;48128;54.242;10.280;2024-03-07T05:22:30;102488.00;;;1.60
25514;BMP180;48128;54.242;10.280;2024-03-07T05:24:57;102498.00;;;1.60
25514;BMP180;48128;54.242;10.280;2024-03-07T05:27:26;102504.00;;;1.60
25514;BMP180;48128;54.242;10.280;2024-03-07T05:29:55;102517.00;;;1.70
25514;BMP180;48128;54.242;10.280;2024-03-07T05:32:26;102512.00;;;1.70
25514;BMP180;48128;54.242;10.280;2024-03-07T05:34:54;102503.00;;;1.70
25514;BMP180;48128;54.242;10.280;2024-03-07T05:37:21;102518.00;;;1.70
25514;BMP180;48128;54.242;10.280;2024-03-07T05:39:51;102520.00;;;1.80
25514;BMP180;48128;54.242;10.280;2024-03-07T05:42:19;102530.00;;;1.80
25514;BMP180;48128;54.242;10.280;2024-03-07T05:44:46;102534.00;;;1.80
25514;BMP180;48128;54.242;10.280;2024-03-07T05:47:13;102537.00;;;1.80
25514;BMP180;48128;54.242;10.280;2024-03-07T05:49:40;102531.00;;;1.80
25514;BMP180;48128;54.242;10.280;2024-03-07T05:52:07;102546.00;;;1.80
25514;BMP180;48128;54.242;10.280;2024-03-07T05:54:36;102539.00;;;1.90
25514;BMP180;48128;54.242;10.280;2024-03-07T05:57:03;102545.00;;;1.90
25514;BMP180;48128;54.242;10.280;2024-03-07T05:59:30;102537.00;;;1.90
25514;BMP180;48128;54.242;10.280;2024-03-07T06:02:00;102548.00;;;1.90
25514;BMP180;48128;54.242;10.280;2024-03-07T06:04:27;102552.00;;;1.90
25514;BMP180;48128;54.242;10.280;2024-03-07T06:06:54;102555.00;;;2.00
25514;BMP180;48128;54.242;10.280;2024-03-07T06:09:21;102551.00;;;2.00
25514;BMP180;48128;54.242;10.280;2024-03-07T06:11:49;102540.00;;;2.00
25514;BMP180;48128;54.242;10.280;2024-03-07T06:14:16;102556.00;;;2.00
25514;BMP180;48128;54.242;10.280;2024-03-07T06:16:44;102543.00;;;2.10
25514;BMP180;48128;54.242;10.280;2024-03-07T06:19:11;102554.00;;;2.10
25514;BMP180;48128;54.242;10.280;2024-03-07T06:21:39;102553.00;;;2.10
25514;BMP180;48128;54.242;10.280;2024-03-07T06:24:09;102579.00;;;2.10
25514;BMP180;48128;54.242;10.280;2024-03-07T06:26:38;102564.00;;;2.20
25514;BMP180;48128;54.242;10.280;2024-03-07T06:29:16;102568.00;;;2.20
25514;BMP180;48128;54.242;10.280;2024-03-07T06:31:45;102562.00;;;2.30
25514;BMP180;48128;54.242;10.280;2024-03-07T06:34:14;102567.00;;;2.30
25514;BMP180;48128;54.242;10.280;2024-03-07T06:36:40;102562.00;;;2.30
25514;BMP180;48128;54.242;10.280;2024-03-07T06:39:07;102565.00;;;2.40
25514;BMP180;48128;54.242;10.280;2024-03-07T06:41:37;102575.00;;;2.40
25514;BMP180;48128;54.242;10.280;2024-03-07T06:44:04;102570.00;;;2.40
25514;BMP180;48128;54.242;10.280;2024-03-07T06:46:32;102574.00;;;2.50
25514;BMP180;48128;54.242;10.280;2024-03-07T06:49:00;102571.00;;;2.50
25514;BMP180;48128;54.242;10.280;2024-03-07T06:51:28;102578.00;;;2.50
25514;BMP180;48128;54.242;10.280;2024-03-07T06:53:55;102577.00;;;2.60
25514;BMP180;48128;54.242;10.280;2024-03-07T06:56:23;102583.00;;;2.60
25514;BMP180;48128;54.242;10.280;2024-03-07T06:58:51;102567.00;;;2.70
25514;BMP180;48128;54.242;10.280;2024-03-07T07:01:19;102568.00;;;2.70
25514;BMP180;48128;54.242;10.280;2024-03-07T07:03:47;102560.00;;;2.70
25514;BMP180;48128;54.242;10.280;2024-03-07T07:06:16;102564.00;;;2.80
25514;BMP180;48128;54.242;10.280;2024-03-07T07:08:44;102572.00;;;2.80
25514;BMP180;48128;54.242;10.280;2024-03-07T07:11:12;102559.00;;;2.90
25514;BMP180;48128;54.242;10.280;2024-03-07T07:13:40;102557.00;;;2.90
25514;BMP180;48128;54.242;10.280;2024-03-07T07:16:08;102568.00;;;2.90
25514;BMP180;48128;54.242;10.280;2024-03-07T07:18:36;102568.00;;;3.00
25514;BMP180;48128;54.242;10.280;2024-03-07T07:21:05;102564.00;;;3.00
25514;BMP180;48128;54.242;10.280;2024-03-07T07:23:33;102582.00;;;3.10
25514;BMP180;48128;54.242;10.280;2024-03-07T07:26:00;102566.00;;;3.10
25514;BMP180;48128;54.242;10.280;2024-03-07T07:28:27;102572.00;;;3.20
25514;BMP180;48128;54.242;10.280;2024-03-07T07:30:54;102564.00;;;3.20
25514;BMP180;48128;54.242;10.280;2024-03-07T07:33:20;102566.00;;;3.30
25514;BMP180;48128;54.242;10.280;2024-03-07T07:35:48;102565.00;;;3.30
25514;BMP180;48128;54.242;10.280;2024-03-07T07:38:15;102572.00;;;3.40
25514;BMP180;48128;54.242;10.280;2024-03-07T07:40:42;102575.00;;;3.40
25514;BMP180;48128;54.242;10.280;2024-03-07T07:43:11;102565.00;;;3.50
25514;BMP180;48128;54.242;10.280;2024-03-07T07:45:54;102568.00;;;3.50
25514;BMP180;48128;54.242;10.280;2024-03-07T07:48:22;102566.00;;;3.60
25514;BMP180;48128;54.242;10.280;2024-03-07T07:50:49;102566.00;;;3.60
25514;BMP180;48128;54.242;10.280;2024-03-07T07:53:18;102550.00;;;3.60
25514;BMP180;48128;54.242;10.280;2024-03-07T07:55:45;102552.00;;;3.70
25514;BMP180;48128;54.242;10.280;2024-03-07T07:58:13;102546.00;;;3.70
25514;BMP180;48128;54.242;10.280;2024-03-07T08:00:40;102556.00;;;3.70
25514;BMP180;48128;54.242;10.280;2024-03-07T08:03:10;102555.00;;;3.70
25514;BMP180;48128;54.242;10.280;2024-03-07T08:05:37;102545.00;;;3.80
25514;BMP180;48128;54.242;10.280;2024-03-07T08:08:06;102537.00;;;3.80
25514;BMP180;48128;54.242;10.280;2024-03-07T08:10:36;102533.00;;;3.80
25514;BMP180;48128;54.242;10.280;2024-03-07T08:13:04;102532.00;;;3.80
25514;BMP180;48128;54.242;10.280;2024-03-07T08:15:35;102526.00;;;3.80
25514;BMP180;48128;54.242;10.280;2024-03-07T08:18:02;102525.00;;;3.90
25514;BMP180;48128;54.242;10.280;2024-03-07T08:20:37;102507.00;;;3.90
25514;BMP180;48128;54.242;10.280;2024-03-07T08:23:07;102530.00;;;3.90
25514;BMP180;48128;54.242;10.280;2024-03-07T08:25:34;102517.00;;;3.80
25514;BMP180;48128;54.242;10.280;2024-03-07T08:28:01;102511.00;;;3.80
25514;BMP180;48128;54.242;10.280;2024-03-07T08:30:28;102512.00;;;3.80
25514;BMP180;48128;54.242;10.280;2024-03-07T08:32:56;102508.00;;;3.80
25514;BMP180;48128;54.242;10.280;2024-03-07T08:35:24;102519.00;;;3.80
25514;BMP180;48128;54.242;10.280;2024-03-07T08:37:53;102513.00;;;3.80
25514;BMP180;48128;54.242;10.280;2024-03-07T08:40:26;102502.00;;;3.80
25514;BMP180;48128;54.242;10.280;2024-03-07T08:42:55;102507.00;;;3.80
25514;BMP180;48128;54.242;10.280;2024-03-07T08:45:27;102509.00;;;3.80
25514;BMP180;48128;54.242;10.280;2024-03-07T08:47:57;102497.00;;;3.90
25514;BMP180;48128;54.242;10.280;2024-03-07T08:50:26;102501.00;;;3.90
25514;BMP180;48128;54.242;10.280;2024-03-07T08:52:54;102505.00;;;3.90
25514;BMP180;48128;54.242;10.280;2024-03-07T08:55:25;102499.00;;;3.90
25514;BMP180;48128;54.242;10.280;2024-03-07T08:57:53;102500.00;;;3.90
25514;BMP180;48128;54.242;10.280;2024-03-07T09:00:20;102496.00;;;3.90
25514;BMP180;48128;54.242;10.280;2024-03-07T09:02:59;102516.00;;;3.90
25514;BMP180;48128;54.242;10.280;2024-03-07T09:05:29;102517.00;;;3.90
25514;BMP180;48128;54.242;10.280;2024-03-07T09:07:58;102496.00;;;3.90
25514;BMP180;48128;54.242;10.280;2024-03-07T09:10:25;102508.00;;;3.90
25514;BMP180;48128;54.242;10.280;2024-03-07T09:12:57;102512.00;;;4.00
25514;BMP180;48128;54.242;10.280;2024-03-07T09:15:25;102514.00;;;4.00
25514;BMP180;48128;54.242;10.280;2024-03-07T09:17:52;102516.00;;;4.00
25514;BMP180;48128;54.242;10.280;2024-03-07T09:20:20;102513.00;;;4.00
25514;BMP180;48128;54.242;10.280;2024-03-07T09:22:47;102514.00;;;4.00
25514;BMP180;48128;54.242;10.280;2024-03-07T09:25:16;102507.00;;;4.00
25514;BMP180;48128;54.242;10.280;2024-03-07T09:27:44;102515.00;;;4.00
25514;BMP180;48128;54.242;10.280;2024-03-07T09:30:11;102515.00;;;4.00
25514;BMP180;48128;54.242;10.280;2024-03-07T09:32:39;102510.00;;;4.00
25514;BMP180;48128;54.242;10.280;2024-03-07T09:35:08;102503.00;;;4.00
25514;BMP180;48128;54.242;10.280;2024-03-07T09:37:42;102498.00;;;4.00
25514;BMP180;48128;54.242;10.280;2024-03-07T09:40:10;102506.00;;;4.00
25514;BMP180;48128;54.242;10.280;2024-03-07T09:42:46;102504.00;;;4.10
25514;BMP180;48128;54.242;10.280;2024-03-07T09:45:17;102504.00;;;4.10
25514;BMP180;48128;54.242;10.280;2024-03-07T09:47:47;102520.00;;;4.20
25514;BMP180;48128;54.242;10.280;2024-03-07T09:50:16;102520.00;;;4.20
25514;BMP180;48128;54.242;10.280;2024-03-07T09:52:46;102541.00;;;4.20
25514;BMP180;48128;54.242;10.280;2024-03-07T09:55:17;102552.00;;;4.20
25514;BMP180;48128;54.242;10.280;2024-03-07T09:57:46;102544.00;;;4.30
25514;BMP180;48128;54.242;10.280;2024-03-07T10:00:16;102557.00;;;4.30
25514;BMP180;48128;54.242;10.280;2024-03-07T10:02:53;102552.00;;;4.30
25514;BMP180;48128;54.242;10.280;2024-03-07T10:05:21;102553.00;;;4.40
25514;BMP180;48128;54.242;10.280;2024-03-07T10:07:49;102555.00;;;4.50
25514;BMP180;48128;54.242;10.280;2024-03-07T10:10:17;102550.00;;;4.50
25514;BMP180;48128;54.242;10.280;2024-03-07T10:12:44;102553.00;;;4.60
25514;BMP180;48128;54.242;10.280;2024-03-07T10:15:11;102575.00;;;4.60
25514;BMP180;48128;54.242;10.280;2024-03-07T10:17:39;102557.00;;;4.70
25514;BMP180;48128;54.242;10.280;2024-03-07T10:20:14;102570.00;;;5.00
25514;BMP180;48128;54.242;10.280;2024-03-07T10:22:41;102579.00;;;5.10
25514;BMP180;48128;54.242;10.280;2024-03-07T10:25:08;102575.00;;;5.20
25514;BMP180;48128;54.242;10.280;2024-03-07T10:27:37;102586.00;;;5.30
25514;BMP180;48128;54.242;10.280;2024-03-07T10:30:06;102581.00;;;5.40
25514;BMP180;48128;54.242;10.280;2024-03-07T10:32:35;102572.00;;;5.40
25514;BMP180;48128;54.242;10.280;2024-03-07T10:35:07;102587.00;;;5.50
25514;BMP180;48128;54.242;10.280;2024-03-07T10:37:35;102586.00;;;5.40
25514;BMP180;48128;54.242;10.280;2024-03-07T10:40:03;102585.00;;;5.40
25514;BMP180;48128;54.242;10.280;2024-03-07T10:42:46;102570.00;;;5.50
25514;BMP180;48128;54.242;10.280;2024-03-07T10:45:19;102585.00;;;5.60
25514;BMP180;48128;54.242;10.280;2024-03-07T10:47:54;102585.00;;;5.60
25514;BMP180;48128;54.242;10.280;2024-03-07T11:01:20;102565.00;;;5.90
25514;BMP180;48128;54.242;10.280;2024-03-07T11:03:47;102563.00;;;6.00
25514;BMP180;48128;54.242;10.280;2024-03-07T11:06:19;102550.00;;;6.40
25514;BMP180;48128;54.242;10.280;2024-03-07T11:08:46;102587.00;;;6.70
25514;BMP180;48128;54.242;10.280;2024-03-07T11:11:13;102586.00;;;6.90
25514;BMP180;48128;54.242;10.280;2024-03-07T11:13:41;102602.00;;;7.00
25514;BMP180;48128;54.242;10.280;2024-03-07T11:16:09;102601.00;;;6.70
25514;BMP180;48128;54.242;10.280;2024-03-07T11:18:36;102577.00;;;6.50
25514;BMP180;48128;54.242;10.280;2024-03-07T11:21:04;102594.00;;;6.40
25514;BMP180;48128;54.242;10.280;2024-03-07T11:23:35;102589.00;;;6.10
25514;BMP180;48128;54.242;10.280;2024-03-07T11:26:09;102562.00;;;6.10
25514;BMP180;48128;54.242;10.280;2024-03-07T11:28:39;102556.00;;;6.10
25514;BMP180;48128;54.242;10.280;2024-03-07T11:31:25;102548.00;;;6.10
25514;BMP180;48128;54.242;10.280;2024-03-07T11:34:23;102560.00;;;6.30
25514;BMP180;48128;54.242;10.280;2024-03-07T11:36:56;102568.00;;;6.30
25514;BMP180;48128;54.242;10.280;2024-03-07T11:39:46;102562.00;;;6.10
25514;BMP180;48128;54.242;10.280;2024-03-07T11:42:27;102546.00;;;5.90
25514;BMP180;48128;54.242;10.280;2024-03-07T11:44:56;102540.00;;;5.80
25514;BMP180;48128;54.242;10.280;2024-03-07T11:47:25;102529.00;;;5.70
25514;BMP180;48128;54.242;10.280;2024-03-07T11:49:56;102517.00;;;5.70
25514;BMP180;48128;54.242;10.280;2024-03-07T11:52:25;102530.00;;;6.00
25514;BMP180;48128;54.242;10.280;2024-03-07T11:54:54;102550.00;;;6.20
25514;BMP180;48128;54.242;10.280;2024-03-07T11:57:31;102543.00;;;6.20
25514;BMP180;48128;54.242;10.280;2024-03-07T12:00:02;102532.00;;;6.30
25514;BMP180;48128;54.242;10.280;2024-03-07T12:02:37;102530.00;;;6.40
25514;BMP180;48128;54.242;10.280;2024-03-07T12:05:07;102539.00;;;6.60
25514;BMP180;48128;54.242;10.280;2024-03-07T12:07:34;102536.00;;;6.70
25514;BMP180;48128;54.242;10.280;2024-03-07T12:10:03;102539.00;;;6.70
25514;BMP180;48128;54.242;10.280;2024-03-07T12:12:31;102550.00;;;6.70
25514;BMP180;48128;54.242;10.280;2024-03-07T12:15:00;102513.00;;;6.60
25514;BMP180;48128;54.242;10.280;2024-03-07T12:17:29;102528.00;;;7.00
25514;BMP180;48128;54.242;10.280;2024-03-07T12:19:58;102526.00;;;7.50
25514;BMP180;48128;54.242;10.280;2024-03-07T12:22:29;102559.00;;;7.60
25514;BMP180;48128;54.242;10.280;2024-03-07T12:25:04;102549.00;;;7.50
25514;BMP180;48128;54.242;10.280;2024-03-07T12:27:35;102531.00;;;7.60
25514;BMP180;48128;54.242;10.280;2024-03-07T12:30:25;102523.00;;;7.40
25514;BMP180;48128;54.242;10.280;2024-03-07T12:32:54;102537.00;;;7.20
25514;BMP180;48128;54.242;10.280;2024-03-07T12:35:21;102502.00;;;7.40
25514;BMP180;48128;54.242;10.280;2024-03-07T12:37:49;102537.00;;;7.40
25514;BMP180;48128;54.242;10.280;2024-03-07T12:40:16;102524.00;;;7.10
25514;BMP180;48128;54.242;10.280;2024-03-07T12:42:47;102506.00;;;7.20
25514;BMP180;48128;54.242;10.280;2024-03-07T12:45:17;102520.00;;;7.50
25514;BMP180;48128;54.242;10.280;2024-03-07T12:47:48;102513.00;;;7.50
25514;BMP180;48128;54.242;10.280;2024-03-07T12:50:19;102515.00;;;7.30
25514;BMP180;48128;54.242;10.280;2024-03-07T12:52:48;102518.00;;;7.10
25514;BMP180;48128;54.242;10.280;2024-03-07T12:55:19;102495.00;;;7.10
25514;BMP180;48128;54.242;10.280;2024-03-07T12:57:48;102502.00;;;7.20
25514;BMP180;48128;54.242;10.280;2024-03-07T13:00:17;102503.00;;;7.40
25514;BMP180;48128;54.242;10.280;2024-03-07T13:02:47;102501.00;;;7.20
25514;BMP180;48128;54.242;10.280;2024-03-07T13:05:15;102495.00;;;7.00
25514;BMP180;48128;54.242;10.280;2024-03-07T13:07:48;102480.00;;;7.00
25514;BMP180;48128;54.242;10.280;2024-03-07T13:10:16;102474.00;;;7.20
25514;BMP180;48128;54.242;10.280;2024-03-07T13:12:45;102500.00;;;7.60
25514;BMP180;48128;54.242;10.280;2024-03-07T13:15:12;102514.00;;;8.00
25514;BMP180;48128;54.242;10.280;2024-03-07T13:17:39;102515.00;;;8.10
25514;BMP180;48128;54.242;10.280;2024-03-07T13:20:13;102522.00;;;8.00
25514;BMP180;48128;54.242;10.280;2024-03-07T13:22:42;102504.00;;;8.00
25514;BMP180;48128;54.242;10.280;2024-03-07T13:25:11;102512.00;;;7.90
25514;BMP180;48128;54.242;10.280;2024-03-07T13:27:50;102489.00;;;7.90
25514;BMP180;48128;54.242;10.280;2024-03-07T13:30:18;102483.00;;;8.20
25514;BMP180;48128;54.242;10.280;2024-03-07T13:32:50;102500.00;;;8.30
25514;BMP180;48128;54.242;10.280;2024-03-07T13:35:19;102508.00;;;8.40
25514;BMP180;48128;54.242;10.280;2024-03-07T13:37:48;102492.00;;;8.20
25514;BMP180;48128;54.242;10.280;2024-03-07T13:40:16;102484.00;;;8.10
25514;BMP180;48128;54.242;10.280;2024-03-07T13:45:25;102481.00;;;8.20
25514;BMP180;48128;54.242;10.280;2024-03-07T13:47:58;102490.00;;;8.40
25514;BMP180;48128;54.242;10.280;2024-03-07T13:50:27;102477.00;;;8.40
25514;BMP180;48128;54.242;10.280;2024-03-07T13:53:17;102487.00;;;8.50
25514;BMP180;48128;54.242;10.280;2024-03-07T13:58:37;102482.00;;;8.40
25514;BMP180;48128;54.242;10.280;2024-03-07T14:01:33;102466.00;;;8.30
25514;BMP180;48128;54.242;10.280;2024-03-07T14:12:53;102422.00;;;8.00
25514;BMP180;48128;54.242;10.280;2024-03-07T14:24:09;102407.00;;;7.80
25514;BMP180;48128;54.242;10.280;2024-03-07T14:26:49;102404.00;;;7.60
25514;BMP180;48128;54.242;10.280;2024-03-07T14:29:43;102402.00;;;7.60
25514;BMP180;48128;54.242;10.280;2024-03-07T14:32:12;102389.00;;;7.50
25514;BMP180;48128;54.242;10.280;2024-03-07T14:35:00;102397.00;;;7.30
25514;BMP180;48128;54.242;10.280;2024-03-07T14:37:53;102402.00;;;7.10
25514;BMP180;48128;54.242;10.280;2024-03-07T14:40:22;102383.00;;;7.00
25514;BMP180;48128;54.242;10.280;2024-03-07T14:42:51;102383.00;;;7.00